createdAt,value
2022-09-15T00:00:30.739Z,36.90
2022-09-15T00:02:57.572Z,39.13
2022-09-15T00:05:24.534Z,39.03
2022-09-15T00:07:51.317Z,37.57
2022-09-15T00:10:18.432Z,35.43
2022-09-15T00:12:45.364Z,39.43
2022-09-15T00:15:14.767Z,36.83
2022-09-15T00:17:43.110Z,34.43
2022-09-15T00:20:10.415Z,35.23
2022-09-15T00:22:37.238Z,34.90
2022-09-15T00:25:04.743Z,36.20
2022-09-15T00:27:32.561Z,36.70
2022-09-15T00:29:59.658Z,29.53
2022-09-15T00:32:26.903Z,36.63
2022-09-15T00:34:53.720Z,31.87
2022-09-15T00:37:20.588Z,30.83
2022-09-15T00:39:47.844Z,35.93
2022-09-15T00:42:22.603Z,32.50
2022-09-15T00:44:55.893Z,27.93
2022-09-15T00:47:27.552Z,33.50
2022-09-15T00:49:59.469Z,27.13
2022-09-15T00:52:54.577Z,28.23
2022-09-15T00:55:23.322Z,29.20
2022-09-15T00:57:58.628Z,35.30
2022-09-15T01:00:28.068Z,29.37
2022-09-15T01:02:56.735Z,33.57
2022-09-15T01:05:34.704Z,34.53
2022-09-15T01:08:11.675Z,34.60
2022-09-15T01:10:41.203Z,36.93
2022-09-15T01:13:10.772Z,36.57
2022-09-15T01:16:16.296Z,40.73
2022-09-15T01:19:01.843Z,39.77
2022-09-15T01:21:34.788Z,39.17
2022-09-15T01:24:45.025Z,39.50
2022-09-15T01:27:42.977Z,38.07
2022-09-15T01:30:25.063Z,39.70
2022-09-15T01:33:06.910Z,38.13
2022-09-15T01:35:56.207Z,41.80
2022-09-15T01:38:34.976Z,36.93
2022-09-15T01:41:29.597Z,40.07
2022-09-15T01:44:02.518Z,38.53
2022-09-15T01:46:34.887Z,39.47
2022-09-15T01:49:03.666Z,39.87
2022-09-15T01:51:33.433Z,42.53
2022-09-15T01:54:03.687Z,36.90
2022-09-15T01:56:30.501Z,37.70
2022-09-15T01:58:57.962Z,38.30
2022-09-15T02:01:32.685Z,38.47
2022-09-15T02:04:06.551Z,40.40
2022-09-15T02:06:52.307Z,39.43
2022-09-15T02:09:30.972Z,39.17
2022-09-15T02:12:03.719Z,41.57
2022-09-15T02:14:49.105Z,43.13
2022-09-15T02:17:19.567Z,44.77
2022-09-15T02:19:51.351Z,40.53
2022-09-15T02:22:33.126Z,39.63
2022-09-15T02:25:05.762Z,43.20
2022-09-15T02:27:37.720Z,46.17
2022-09-15T02:30:11.809Z,45.10
2022-09-15T02:32:42.259Z,41.97
2022-09-15T02:35:10.119Z,46.43
2022-09-15T02:37:38.909Z,51.83
2022-09-15T02:40:07.124Z,55.83
2022-09-15T02:42:34.337Z,53.73
2022-09-15T02:45:02.184Z,56.20
2022-09-15T02:47:29.411Z,55.40
2022-09-15T02:49:57.143Z,54.53
2022-09-15T02:52:24.183Z,54.17
2022-09-15T02:54:50.901Z,59.03
2022-09-15T02:57:18.133Z,56.57
2022-09-15T03:00:03.647Z,55.63
2022-09-15T03:02:31.555Z,56.00
2022-09-15T03:04:58.382Z,57.30
2022-09-15T03:07:25.140Z,53.83
2022-09-15T03:09:51.911Z,53.33
2022-09-15T03:12:19.086Z,52.63
2022-09-15T03:14:46.963Z,50.53
2022-09-15T03:17:13.817Z,52.63
2022-09-15T03:19:40.619Z,51.03
2022-09-15T03:22:09.327Z,49.00
2022-09-15T03:24:37.306Z,50.27
2022-09-15T03:27:05.385Z,47.60
2022-09-15T03:29:32.152Z,48.60
2022-09-15T03:31:58.954Z,49.30
2022-09-15T03:34:25.782Z,44.33
2022-09-15T03:36:52.533Z,45.17
2022-09-15T03:39:19.400Z,40.20
2022-09-15T03:41:46.203Z,44.33
2022-09-15T03:44:12.911Z,42.10
2022-09-15T03:46:39.637Z,42.23
2022-09-15T03:49:09.706Z,44.07
2022-09-15T03:51:36.476Z,38.17
2022-09-15T03:54:03.303Z,39.23
2022-09-15T03:56:31.676Z,35.10
2022-09-15T03:58:59.557Z,35.70
2022-09-15T04:01:26.711Z,38.63
2022-09-15T04:03:53.868Z,34.00
2022-09-15T04:06:22.485Z,32.70
2022-09-15T04:08:50.170Z,35.70
2022-09-15T04:11:18.275Z,39.07
2022-09-15T04:13:45.823Z,39.97
2022-09-15T04:16:15.889Z,39.33
2022-09-15T04:18:43.657Z,36.43
2022-09-15T04:21:16.242Z,41.73
2022-09-15T04:23:43.496Z,34.70
2022-09-15T04:26:32.033Z,37.47
2022-09-15T04:29:03.883Z,35.43
2022-09-15T04:31:33.246Z,33.97
2022-09-15T04:34:03.051Z,27.50
2022-09-15T04:36:31.397Z,32.07
2022-09-15T04:38:58.749Z,30.10
2022-09-15T04:41:27.011Z,31.07
2022-09-15T04:43:54.215Z,27.90
2022-09-15T04:46:21.654Z,28.57
2022-09-15T04:48:49.043Z,29.50
2022-09-15T04:51:18.790Z,26.57
2022-09-15T04:53:46.480Z,31.63
2022-09-15T04:56:15.829Z,26.53
2022-09-15T04:58:49.048Z,27.53
2022-09-15T05:01:30.007Z,26.10
2022-09-15T05:03:57.288Z,22.67
2022-09-15T05:06:28.304Z,27.10
2022-09-15T05:08:57.029Z,19.87
2022-09-15T05:11:24.902Z,26.10
2022-09-15T05:13:51.887Z,18.33
2022-09-15T05:16:21.616Z,22.77
2022-09-15T05:18:50.121Z,20.37
2022-09-15T05:21:19.626Z,22.23
2022-09-15T05:23:47.431Z,21.47
2022-09-15T05:26:17.271Z,19.00
2022-09-15T05:28:44.877Z,20.47
2022-09-15T05:31:21.108Z,20.10
2022-09-15T05:33:49.466Z,20.63
2022-09-15T05:36:17.440Z,19.33
2022-09-15T05:38:45.105Z,18.33
2022-09-15T05:41:16.406Z,19.17
2022-09-15T05:43:44.331Z,18.47
2022-09-15T05:46:12.112Z,17.33
2022-09-15T05:48:39.332Z,19.37
2022-09-15T05:51:06.696Z,18.63
2022-09-15T05:53:35.165Z,16.03
2022-09-15T05:56:08.234Z,17.83
2022-09-15T05:58:35.144Z,21.33
2022-09-15T06:01:20.312Z,18.03
2022-09-15T06:03:47.830Z,17.87
2022-09-15T06:06:14.727Z,14.37
2022-09-15T06:08:45.805Z,16.53
2022-09-15T06:11:20.331Z,17.63
2022-09-15T06:13:47.763Z,14.97
2022-09-15T06:16:19.500Z,18.30
2022-09-15T06:18:48.447Z,15.47
2022-09-15T06:21:18.011Z,18.50
2022-09-15T06:23:50.503Z,14.30
2022-09-15T06:26:18.962Z,16.50
2022-09-15T06:29:01.063Z,18.47
2022-09-15T06:31:31.618Z,16.50
2022-09-15T06:33:59.296Z,15.37
2022-09-15T06:36:28.472Z,15.03
2022-09-15T06:38:55.966Z,14.83
2022-09-15T06:41:23.454Z,14.37
2022-09-15T06:43:50.387Z,15.47
2022-09-15T06:46:23.299Z,13.70
2022-09-15T06:48:51.335Z,14.47
2022-09-15T06:51:20.495Z,14.90
2022-09-15T06:53:47.632Z,15.30
2022-09-15T06:56:16.926Z,13.90
2022-09-15T06:58:44.978Z,13.90
2022-09-15T07:01:33.166Z,12.37
2022-09-15T07:04:01.680Z,12.07
2022-09-15T07:06:30.609Z,12.33
2022-09-15T07:08:58.465Z,13.90
2022-09-15T07:11:26.371Z,14.80
2022-09-15T07:13:53.262Z,13.43
2022-09-15T07:16:21.005Z,12.63
2022-09-15T07:18:48.924Z,11.87
2022-09-15T07:21:18.478Z,15.93
2022-09-15T07:23:45.768Z,15.03
2022-09-15T07:26:20.176Z,13.37
2022-09-15T07:28:54.706Z,12.03
2022-09-15T07:31:25.467Z,14.67
2022-09-15T07:33:52.630Z,22.23
2022-09-15T07:36:20.117Z,14.30
2022-09-15T07:38:48.907Z,12.23
2022-09-15T07:41:18.758Z,12.50
2022-09-15T07:43:51.274Z,10.30
2022-09-15T07:46:19.362Z,13.33
2022-09-15T07:48:51.730Z,9.80
2022-09-15T07:51:19.440Z,9.83
2022-09-15T07:53:48.262Z,11.47
2022-09-15T07:56:18.439Z,13.00
2022-09-15T07:58:46.824Z,11.93
2022-09-15T08:01:18.918Z,9.57
2022-09-15T08:03:51.077Z,10.30
2022-09-15T08:06:20.689Z,10.83
2022-09-15T08:08:47.512Z,10.87
2022-09-15T08:11:19.070Z,11.00
2022-09-15T08:13:47.810Z,10.93
2022-09-15T08:16:16.849Z,10.37
2022-09-15T08:18:45.326Z,8.50
2022-09-15T08:21:16.786Z,11.23
2022-09-15T08:24:50.881Z,7.00
2022-09-15T08:27:33.492Z,6.83
2022-09-15T08:30:00.342Z,9.70
2022-09-15T08:32:27.128Z,10.43
2022-09-15T08:34:53.870Z,7.47
2022-09-15T08:37:20.647Z,6.53
2022-09-15T08:39:47.453Z,8.03
2022-09-15T08:42:16.986Z,7.23
2022-09-15T08:45:05.318Z,9.47
2022-09-15T08:47:44.580Z,9.63
2022-09-15T08:50:23.133Z,8.90
2022-09-15T08:53:11.935Z,8.33
2022-09-15T08:55:54.137Z,12.37
2022-09-15T08:58:28.366Z,9.17
2022-09-15T09:01:11.732Z,9.97
2022-09-15T09:04:23.705Z,7.67
2022-09-15T09:07:35.667Z,8.30
2022-09-15T09:10:02.467Z,6.00
2022-09-15T09:12:46.173Z,6.00
2022-09-15T09:15:38.111Z,7.83
2022-09-15T09:18:27.014Z,5.57
2022-09-15T09:21:12.515Z,6.67
2022-09-15T09:24:03.673Z,7.83
2022-09-15T09:26:33.747Z,4.40
2022-09-15T09:29:06.510Z,4.33
2022-09-15T09:31:36.340Z,7.90
2022-09-15T09:34:16.954Z,9.57
2022-09-15T09:36:43.799Z,6.50
2022-09-15T09:39:16.665Z,7.50
2022-09-15T09:41:44.176Z,7.40
2022-09-15T09:44:13.672Z,8.47
2022-09-15T09:46:41.346Z,5.13
2022-09-15T09:49:26.088Z,6.70
2022-09-15T09:52:00.149Z,6.40
2022-09-15T09:54:28.745Z,4.57
2022-09-15T09:57:17.034Z,4.37
2022-09-15T09:59:46.524Z,5.83
2022-09-15T10:02:29.220Z,6.57
2022-09-15T10:05:18.221Z,4.23
2022-09-15T10:07:45.203Z,4.47
2022-09-15T10:10:24.404Z,3.67
2022-09-15T10:12:56.381Z,6.67
2022-09-15T10:15:32.465Z,4.57
2022-09-15T10:18:00.366Z,7.83
2022-09-15T10:20:40.107Z,5.77
2022-09-15T10:23:18.765Z,5.57
2022-09-15T10:26:01.345Z,3.50
2022-09-15T10:28:28.533Z,4.17
2022-09-15T10:31:10.725Z,3.93
2022-09-15T10:33:43.260Z,4.60
2022-09-15T10:36:31.313Z,3.33
2022-09-15T10:39:06.824Z,3.00
2022-09-15T10:41:37.697Z,4.93
2022-09-15T10:44:42.539Z,3.92
2022-09-15T10:47:34.406Z,6.15
2022-09-15T10:50:07.268Z,4.22
2022-09-15T10:53:03.318Z,3.20
2022-09-15T10:55:52.837Z,10.27
2022-09-15T10:58:55.978Z,4.88
2022-09-15T11:01:28.580Z,4.88
2022-09-15T11:04:20.530Z,3.22
2022-09-15T11:06:51.309Z,5.83
2022-09-15T11:09:25.934Z,4.13
2022-09-15T11:12:17.284Z,4.38
2022-09-15T11:14:53.015Z,5.90
2022-09-15T11:17:45.167Z,4.20
2022-09-15T11:20:21.911Z,4.17
2022-09-15T11:23:11.891Z,6.17
2022-09-15T11:25:43.981Z,5.30
2022-09-15T11:28:23.333Z,4.05
2022-09-15T11:30:58.707Z,6.97
2022-09-15T11:33:37.730Z,4.93
2022-09-15T11:36:17.896Z,5.65
2022-09-15T11:39:06.809Z,5.88
2022-09-15T11:41:51.004Z,3.50
2022-09-15T11:44:32.066Z,6.32
2022-09-15T11:47:04.879Z,6.80
2022-09-15T11:49:56.446Z,7.40
2022-09-15T11:52:38.378Z,5.05
2022-09-15T11:55:33.150Z,4.78
2022-09-15T11:58:21.603Z,5.55
2022-09-15T12:00:57.293Z,5.35
2022-09-15T12:03:33.776Z,5.65
2022-09-15T12:06:12.799Z,6.90
2022-09-15T12:09:01.528Z,4.95
2022-09-15T12:11:31.966Z,5.03
2022-09-15T12:14:00.176Z,6.43
2022-09-15T12:16:27.948Z,3.30
2022-09-15T12:18:57.582Z,5.95
2022-09-15T12:21:37.180Z,5.10
2022-09-15T12:24:36.223Z,6.88
2022-09-15T12:27:03.715Z,5.40
2022-09-15T12:29:41.178Z,5.57
2022-09-15T12:32:24.793Z,4.82
2022-09-15T12:35:16.851Z,6.43
2022-09-15T12:37:49.243Z,4.90
2022-09-15T12:40:34.638Z,5.90
2022-09-15T12:43:16.666Z,5.47
2022-09-15T12:45:54.191Z,4.30
2022-09-15T12:48:26.097Z,5.38
2022-09-15T12:51:06.045Z,6.30
2022-09-15T12:53:37.520Z,2.53
2022-09-15T12:56:20.811Z,6.45
2022-09-15T12:58:49.773Z,2.90
2022-09-15T13:01:19.689Z,2.55
2022-09-15T13:03:47.602Z,4.90
2022-09-15T13:06:24.908Z,2.95
2022-09-15T13:09:02.009Z,2.13
2022-09-15T13:11:37.191Z,5.10
2022-09-15T13:14:04.224Z,3.08
2022-09-15T13:16:40.499Z,3.65
2022-09-15T13:19:22.138Z,2.70
2022-09-15T13:22:11.667Z,9.55
2022-09-15T13:24:47.264Z,6.18
2022-09-15T13:27:18.331Z,3.63
2022-09-15T13:30:01.073Z,5.10
2022-09-15T13:32:55.352Z,2.28
2022-09-15T13:35:46.621Z,7.03
2022-09-15T13:38:34.376Z,3.58
2022-09-15T13:41:15.515Z,4.10
2022-09-15T13:44:19.107Z,3.33
2022-09-15T13:47:19.960Z,5.55
2022-09-15T13:50:05.853Z,6.75
2022-09-15T13:52:41.496Z,3.80
2022-09-15T13:55:21.647Z,3.80
2022-09-15T14:00:54.973Z,6.47
2022-09-15T14:03:28.344Z,3.20
2022-09-15T14:05:56.428Z,1.23
2022-09-15T14:08:30.277Z,2.00
2022-09-15T14:11:01.874Z,2.63
2022-09-15T14:13:30.610Z,5.20
2022-09-15T14:15:58.665Z,3.90
2022-09-15T14:18:25.574Z,4.97
2022-09-15T14:21:03.243Z,3.97
2022-09-15T14:23:31.027Z,3.37
2022-09-15T14:26:00.347Z,2.13
2022-09-15T14:28:32.924Z,5.13
2022-09-15T14:31:01.969Z,2.63
2022-09-15T14:33:40.384Z,3.63
2022-09-15T14:36:27.650Z,1.53
2022-09-15T14:39:12.450Z,9.63
2022-09-15T14:41:42.967Z,2.67
2022-09-15T14:47:19.810Z,3.73
2022-09-15T14:49:46.972Z,4.57
2022-09-15T14:52:37.570Z,1.63
2022-09-15T14:55:10.550Z,3.47
2022-09-15T14:57:41.030Z,5.87
2022-09-15T15:00:14.268Z,4.40
2022-09-15T15:03:26.913Z,5.07
2022-09-15T15:06:27.746Z,2.40
2022-09-15T15:09:01.142Z,4.23
2022-09-15T15:11:28.944Z,2.53
2022-09-15T15:13:57.052Z,3.47
2022-09-15T15:16:29.362Z,2.93
2022-09-15T15:18:57.263Z,4.60
2022-09-15T15:21:36.188Z,3.60
2022-09-15T15:24:22.919Z,2.73
2022-09-15T15:26:50.554Z,2.60
2022-09-15T15:29:36.331Z,2.07
2022-09-15T15:32:23.180Z,3.87
2022-09-15T15:34:54.839Z,3.07
2022-09-15T15:37:27.667Z,3.07
2022-09-15T15:39:56.632Z,4.10
2022-09-15T15:42:24.307Z,4.03
2022-09-15T15:45:24.784Z,5.10
2022-09-15T15:47:52.051Z,4.33
2022-09-15T15:50:24.817Z,2.87
2022-09-15T15:52:52.663Z,10.17
2022-09-15T15:55:24.780Z,3.53
2022-09-15T15:57:53.694Z,8.70
2022-09-15T16:00:29.884Z,5.13
2022-09-15T16:02:56.760Z,2.27
2022-09-15T16:05:27.670Z,5.40
2022-09-15T16:07:56.778Z,3.70
2022-09-15T16:10:28.029Z,3.27
2022-09-15T16:12:54.793Z,3.87
2022-09-15T16:15:22.097Z,2.40
2022-09-15T16:17:49.734Z,10.10
2022-09-15T16:20:17.229Z,4.87
2022-09-15T16:22:44.290Z,3.43
2022-09-15T16:25:22.097Z,5.10
2022-09-15T16:27:48.899Z,2.93
2022-09-15T16:30:15.802Z,7.37
2022-09-15T16:32:42.956Z,3.43
2022-09-15T16:35:36.120Z,2.20
2022-09-15T16:38:03.171Z,4.47
2022-09-15T16:40:30.032Z,3.30
2022-09-15T16:42:56.995Z,2.50
2022-09-15T16:45:39.954Z,3.67
2022-09-15T16:48:08.362Z,6.67
2022-09-15T16:50:35.558Z,3.23
2022-09-15T16:53:03.177Z,4.97
2022-09-15T16:55:40.332Z,5.73
2022-09-15T16:58:07.471Z,1.43
2022-09-15T17:00:37.861Z,2.87
2022-09-15T17:03:06.585Z,4.97
2022-09-15T17:05:37.859Z,4.00
2022-09-15T17:08:06.374Z,2.27
2022-09-15T17:10:33.731Z,4.97
2022-09-15T17:13:01.490Z,3.57
2022-09-15T17:15:39.036Z,3.13
2022-09-15T17:18:07.652Z,5.40
2022-09-15T17:20:39.222Z,6.70
2022-09-15T17:23:18.579Z,2.53
2022-09-15T17:25:51.961Z,1.63
2022-09-15T17:28:22.911Z,3.20
2022-09-15T17:30:56.955Z,3.63
2022-09-15T17:33:24.495Z,2.53
2022-09-15T17:35:51.399Z,1.40
2022-09-15T17:38:20.311Z,2.43
2022-09-15T17:40:47.890Z,1.33
2022-09-15T17:43:18.609Z,3.07
2022-09-15T17:45:45.835Z,6.70
2022-09-15T17:48:13.214Z,3.00
2022-09-15T17:50:41.787Z,4.03
2022-09-15T17:53:15.781Z,2.80
2022-09-15T17:55:43.036Z,2.90
2022-09-15T17:58:10.336Z,2.67
2022-09-15T18:00:39.676Z,2.00
2022-09-15T18:03:35.695Z,2.30
2022-09-15T18:06:08.039Z,1.83
2022-09-15T18:08:36.088Z,4.93
2022-09-15T18:11:04.038Z,2.20
2022-09-15T18:13:31.312Z,2.30
2022-09-15T18:16:02.847Z,1.60
2022-09-15T18:18:30.417Z,2.33
2022-09-15T18:20:58.375Z,2.00
2022-09-15T18:23:28.374Z,1.80
2022-09-15T18:25:55.586Z,3.60
2022-09-15T18:28:22.585Z,1.33
2022-09-15T18:30:50.490Z,2.60
2022-09-15T18:33:23.026Z,1.97
2022-09-15T18:35:55.334Z,2.63
2022-09-15T18:38:23.141Z,4.30
2022-09-15T18:40:53.613Z,3.00
2022-09-15T18:43:21.495Z,1.67
2022-09-15T18:45:48.449Z,2.30
2022-09-15T18:48:15.957Z,2.90
2022-09-15T18:50:45.820Z,3.77
2022-09-15T18:53:13.240Z,3.33
2022-09-15T18:55:43.912Z,2.70
2022-09-15T18:58:11.509Z,5.10
2022-09-15T19:00:38.491Z,3.43
2022-09-15T19:03:11.789Z,2.60
2022-09-15T19:05:38.625Z,2.63
2022-09-15T19:08:08.223Z,2.87
2022-09-15T19:10:35.256Z,1.73
2022-09-15T19:13:02.165Z,3.60
2022-09-15T19:15:31.253Z,3.27
2022-09-15T19:17:58.269Z,2.80
2022-09-15T19:20:25.188Z,2.33
2022-09-15T19:22:52.008Z,5.50
2022-09-15T19:25:19.445Z,1.67
2022-09-15T19:27:48.025Z,8.03
2022-09-15T19:30:15.246Z,2.03
2022-09-15T19:32:42.460Z,3.23
2022-09-15T19:35:09.512Z,8.73
2022-09-15T19:37:38.798Z,3.23
2022-09-15T19:40:09.375Z,5.20
2022-09-15T19:42:38.487Z,2.47
2022-09-15T19:45:06.827Z,1.90
2022-09-15T19:47:33.970Z,3.37
2022-09-15T19:50:00.818Z,5.00
2022-09-15T19:52:28.539Z,5.73
2022-09-15T19:54:55.405Z,4.67
2022-09-15T19:57:22.584Z,4.20
2022-09-15T19:59:50.007Z,5.53
2022-09-15T20:02:17.236Z,2.53
2022-09-15T20:04:45.272Z,3.27
2022-09-15T20:07:12.596Z,5.20
2022-09-15T20:09:39.530Z,3.73
2022-09-15T20:12:06.572Z,2.83
2022-09-15T20:14:33.667Z,5.20
2022-09-15T20:17:01.419Z,2.00
2022-09-15T20:19:29.976Z,2.13
2022-09-15T20:21:56.974Z,2.33
2022-09-15T20:24:24.165Z,3.87
2022-09-15T20:26:51.585Z,7.17
2022-09-15T20:29:19.082Z,1.43
2022-09-15T20:31:47.054Z,3.63
2022-09-15T20:34:13.980Z,5.73
2022-09-15T20:36:41.017Z,4.37
2022-09-15T20:39:12.916Z,2.97
2022-09-15T20:41:41.751Z,3.03
2022-09-15T20:44:09.464Z,4.53
2022-09-15T20:46:36.368Z,5.17
2022-09-15T20:49:04.631Z,3.80
2022-09-15T20:51:33.629Z,2.80
2022-09-15T20:54:03.416Z,2.07
2022-09-15T20:56:31.911Z,3.40
2022-09-15T20:59:00.279Z,4.60
2022-09-15T21:01:36.808Z,3.63
2022-09-15T21:04:04.747Z,2.30
2022-09-15T21:06:31.581Z,2.50
2022-09-15T21:08:58.763Z,2.57
2022-09-15T21:11:27.513Z,5.37
2022-09-15T21:13:55.173Z,3.73
2022-09-15T21:16:24.606Z,4.10
2022-09-15T21:18:51.866Z,4.27
2022-09-15T21:21:24.159Z,4.07
2022-09-15T21:23:54.182Z,3.67
2022-09-15T21:26:23.384Z,3.93
2022-09-15T21:28:50.296Z,3.87
2022-09-15T21:31:19.294Z,4.73
2022-09-15T21:33:47.706Z,4.10
2022-09-15T21:36:23.259Z,5.10
2022-09-15T21:38:52.073Z,3.83
2022-09-15T21:41:21.954Z,4.37
2022-09-15T21:43:50.083Z,7.73
2022-09-15T21:46:18.815Z,2.70
2022-09-15T21:48:49.762Z,4.63
2022-09-15T21:51:23.963Z,2.80
2022-09-15T21:53:52.970Z,6.63
2022-09-15T21:56:20.482Z,2.70
2022-09-15T21:58:47.269Z,5.73
2022-09-15T22:01:14.928Z,5.90
2022-09-15T22:03:42.856Z,4.23
2022-09-15T22:06:11.032Z,4.80
2022-09-15T22:08:41.931Z,3.40
2022-09-15T22:11:09.277Z,2.43
2022-09-15T22:13:39.687Z,2.87
2022-09-15T22:16:09.337Z,2.97
2022-09-15T22:18:37.401Z,2.87
2022-09-15T22:21:10.071Z,2.80
2022-09-15T22:23:37.133Z,5.27
2022-09-15T22:26:10.051Z,2.13
2022-09-15T22:28:36.952Z,1.10
2022-09-15T22:31:06.869Z,4.03
2022-09-15T22:33:34.062Z,4.00
2022-09-15T22:36:01.250Z,5.67
2022-09-15T22:38:29.990Z,2.50
2022-09-15T22:41:03.953Z,3.27
2022-09-15T22:43:30.721Z,4.80
2022-09-15T22:45:57.535Z,4.67
2022-09-15T22:48:24.363Z,3.57
2022-09-15T22:50:51.136Z,2.13
2022-09-15T22:53:17.915Z,2.83
2022-09-15T22:55:44.832Z,2.57
2022-09-15T22:58:11.641Z,2.07
2022-09-15T23:00:39.020Z,4.30
2022-09-15T23:03:07.125Z,3.50
2022-09-15T23:05:34.838Z,3.90
2022-09-15T23:08:01.950Z,3.63
2022-09-15T23:10:30.207Z,3.97
2022-09-15T23:12:59.203Z,2.20
2022-09-15T23:15:26.080Z,5.87
2022-09-15T23:17:52.824Z,3.00
2022-09-15T23:20:19.841Z,2.73
2022-09-15T23:22:46.598Z,3.93
2022-09-15T23:25:13.426Z,3.13
2022-09-15T23:27:40.298Z,2.60
2022-09-15T23:30:07.572Z,3.43
2022-09-15T23:32:34.309Z,3.30
2022-09-15T23:35:01.083Z,2.20
2022-09-15T23:37:27.802Z,3.30
2022-09-15T23:39:54.655Z,3.60
2022-09-15T23:42:21.393Z,2.50
2022-09-15T23:44:48.161Z,5.20
2022-09-15T23:47:14.947Z,3.37
2022-09-15T23:49:41.645Z,1.87
2022-09-15T23:52:08.575Z,6.80
2022-09-15T23:54:35.501Z,5.57
2022-09-15T23:57:02.262Z,3.00
2022-09-15T23:59:29.017Z,3.40
